Flight Track Log - Related Links

Times and Time Zones

All times are in EDT time to prevent confusion due to time zone crossing. See the SWA303 flight status page for this flight to view local times or setup timezone preferences in your user account.

Time Position Orientation Groundspeed Altitude Reporting Facility
EDT Latitude Longitude Course Direction KTS MPH feet Rate Location/Type
Sun 02:23:55 PM 39.8167 -104.6500 158° South 187 215 6,500  Level Denver TRACON
Sun 02:24:25 PM 39.7947 -104.6383 158° South 196 226 7,200 2,217 Climbing Denver Center
Sun 02:25:27 PM 39.7569 -104.5819 131° Southeast 214 246 9,900 2,081 Climbing Denver Center
Sun 02:26:29 PM 39.7719 -104.4753 80° East 286 329 11,500 2,177 Climbing Denver Center
Sun 02:27:31 PM 39.7906 -104.3539 79° East 342 394 14,400 2,806 Climbing Denver Center
Sun 02:28:33 PM 39.8111 -104.2189 79° East 361 415 17,300 2,613 Climbing Denver Center
Sun 02:29:35 PM 39.8311 -104.0856 79° East 378 435 19,800 2,419 Climbing Denver Center
Sun 02:30:37 PM 39.8531 -103.9342 79° East 395 455 22,300 2,226 Climbing Denver Center
Sun 02:31:39 PM 39.8744 -103.7889 79° East 409 471 24,400 1,839 Climbing Denver Center
Sun 02:32:41 PM 39.8956 -103.6361 80° East 418 481 26,100 1,645 Climbing Denver Center
Sun 02:33:43 PM 39.9131 -103.4736 82° East 447 514 27,800 1,597 Climbing Denver Center
Sun 02:34:45 PM 39.9339 -103.3064 81° East 460 529 29,400 1,500 Climbing Denver Center
Sun 02:35:47 PM 39.9567 -103.1067 81° East 472 543 30,900 1,306 Climbing Denver Center
Sun 02:36:49 PM 39.9761 -102.9300 82° East 487 560 32,100 1,113 Climbing Denver Center
Sun 02:37:51 PM 39.9933 -102.7433 83° East 509 586 33,200 1,403 Climbing Denver Center
Sun 02:38:53 PM 40.0133 -102.5617 82° East 513 590 35,000 1,839 Climbing Denver Center
Sun 02:39:55 PM 40.0333 -102.3644 82° East 495 570 37,000 968 Climbing Denver Center
Sun 02:40:57 PM 40.0517 -102.1983 82° East 485 558 37,000  Level Denver Center
Sun 02:41:59 PM 40.0681 -102.0317 83° East 486 559 37,000  Level Denver Center
Sun 02:43:01 PM 40.0864 -101.8375 83° East 484 557 37,000  Level Denver Center
Sun 02:44:03 PM 40.1036 -101.6719 82° East 484 557 37,000  Level Denver Center
Sun 02:45:05 PM 40.1214 -101.4767 83° East 486 559 37,000  Level Denver Center
Sun 02:46:07 PM 40.1372 -101.3108 83° East 483 556 37,000  Level Denver Center
Sun 02:47:09 PM 40.1556 -101.1183 83° East 480 552 37,000  Level Denver Center
Sun 02:48:11 PM 40.1711 -100.9522 83° East 482 555 37,000  Level Denver Center
Sun 02:49:13 PM 40.1889 -100.7603 83° East 479 551 37,000  Level Denver Center
Sun 02:50:15 PM 40.2028 -100.5953 84° East 480 552 37,000  Level Denver Center
Sun 02:51:17 PM 40.2064 -100.4042 89° East 473 544 37,000  Level Denver Center
Sun 02:52:20 PM 40.2106 -100.2381 88° East 478 550 37,000  Level Denver Center
Sun 02:53:21 PM 40.2125 -100.0447 89° East 478 550 37,000  Level Denver Center
Sun 02:54:23 PM 40.2150 -99.8828 89° East 477 549 37,000  Level Denver Center
Sun 02:55:25 PM 40.2167 -99.7089 89° East 478 550 37,000  Level Denver Center
Sun 02:56:27 PM 40.2181 -99.5000 89° East 480 552 37,000  Level Denver Center
Sun 02:57:29 PM 40.2203 -99.3256 89° East 481 554 37,000  Level Denver Center
Sun 02:58:31 PM 40.2208 -99.1525 90° East 480 552 37,000  Level Denver Center
Sun 02:59:33 PM 40.2219 -98.9808 89° East 475 547 37,000  Level Denver Center
Sun 03:00:40 PM 40.2231 -98.7792 90° East 470 541 37,000  Level Minneapolis Center
Sun 03:01:41 PM 40.2222 -98.6125 90° East 464 534 37,000  Level Minneapolis Center
Sun 03:02:43 PM 40.2225 -98.4469 90° East 459 528 37,000  Level Minneapolis Center
Sun 03:03:45 PM 40.2222 -98.2817 90° East 458 527 37,000  Level Minneapolis Center
Sun 03:04:47 PM 40.2217 -98.1172 90° East 455 524 37,000  Level Minneapolis Center
Sun 03:05:49 PM 40.2219 -97.9525 90° East 454 522 37,000  Level Minneapolis Center
Sun 03:06:50 PM 40.2203 -97.7511 91° East 460 529 37,000  Level Minneapolis Center
Sun 03:07:52 PM 40.2181 -97.5828 91° East 462 532 37,000  Level Minneapolis Center
Sun 03:08:54 PM 40.2175 -97.4131 90° East 466 536 37,000  Level Minneapolis Center
Sun 03:09:56 PM 40.2156 -97.2319 91° East 463 533 37,000  Level Minneapolis Center
Sun 03:10:57 PM 40.2133 -97.0631 91° East 463 533 37,000  Level Minneapolis Center
Sun 03:11:59 PM 40.2108 -96.8986 91° East 458 527 37,000  Level Minneapolis Center
Sun 03:13:01 PM 40.2089 -96.7328 91° East 458 527 37,000  Level Minneapolis Center
Sun 03:14:02 PM 40.2072 -96.5694 91° East 454 522 37,000  Level Minneapolis Center
Sun 03:15:51 PM 40.2028 -96.2586 91° East 451 519 37,000  Level Kansas City Center
Sun 03:16:18 PM 40.2006 -96.2119 94° East 448 516 37,000  Level Minneapolis Center
Sun 03:17:20 PM 40.1992 -96.0167 90° East 449 517 37,000  Level Minneapolis Center
Sun 03:18:21 PM 40.1989 -95.8525 90° East 453 521 37,000  Level Minneapolis Center
Sun 03:19:23 PM 40.1978 -95.6925 90° East 446 513 37,000  Level Minneapolis Center
Sun 03:20:25 PM 40.1961 -95.5339 91° East 441 507 37,000  Level Minneapolis Center
Sun 03:21:26 PM 40.1958 -95.3750 90° East 439 505 37,000  Level Minneapolis Center
Sun 03:22:28 PM 40.1936 -95.2164 91° East 438 504 37,000  Level Minneapolis Center
Sun 03:23:29 PM 40.1917 -95.0603 91° East 433 498 37,000  Level Minneapolis Center
Sun 03:24:31 PM 40.1900 -94.8739 91° East 430 495 37,000  Level Minneapolis Center
Sun 03:25:33 PM 40.1881 -94.7181 91° East 429 494 37,000 98 Level Minneapolis Center
Sun 03:26:34 PM 40.1858 -94.5619 91° East 430 495 37,200 390 Climbing Minneapolis Center
Sun 03:27:36 PM 40.1814 -94.3928 92° East 433 498 37,800 600 Climbing Minneapolis Center
Sun 03:28:14 PM 40.1792 -94.2944 92° East 440 506 38,200 720 Climbing Kansas City Center
Sun 03:29:16 PM 40.1761 -94.1394 91° East 445 512 39,000 387 Climbing Kansas City Center
Sun 03:30:18 PM 40.1708 -93.9739 92° East 446 513 39,000  Level Kansas City Center
Sun 03:31:20 PM 40.1675 -93.8167 92° East 439 505 39,000  Level Kansas City Center
Sun 03:32:23 PM 40.1631 -93.6283 92° East 437 503 39,000  Level Kansas City Center
Sun 03:33:24 PM 40.1586 -93.4703 92° East 438 504 39,000  Level Kansas City Center
Sun 03:34:26 PM 40.1556 -93.3139 91° East 436 502 39,000  Level Kansas City Center
Sun 03:35:28 PM 40.1525 -93.1561 91° East 439 505 39,000  Level Kansas City Center
Sun 03:36:30 PM 40.1469 -92.9939 93° East 438 504 39,000  Level Kansas City Center
Sun 03:37:32 PM 40.1406 -92.8175 93° East 437 503 39,000  Level Kansas City Center
Sun 03:38:34 PM 40.1367 -92.6661 92° East 435 501 39,000  Level Kansas City Center
Sun 03:39:36 PM 40.1267 -92.4908 94° East 432 497 39,000  Level Kansas City Center
Sun 03:40:38 PM 40.1142 -92.3517 97° East 433 498 39,000  Level Kansas City Center
Sun 03:41:40 PM 40.0964 -92.1631 97° East 439 505 39,000  Level Kansas City Center
Sun 03:42:42 PM 40.0811 -92.0053 97° East 442 509 39,000  Level Kansas City Center
Sun 03:43:44 PM 40.0672 -91.8492 97° East 440 506 39,000  Level Kansas City Center
Sun 03:44:46 PM 40.0514 -91.6914 97° East 442 509 39,000  Level Kansas City Center
Sun 03:45:48 PM 40.0358 -91.5336 97° East 442 509 39,000  Level Kansas City Center
Sun 03:46:50 PM 40.0181 -91.3489 97° East 435 501 39,000  Level Kansas City Center
Sun 03:47:52 PM 40.0031 -91.1953 97° East 431 496 39,000  Level Kansas City Center
Sun 03:48:54 PM 39.9864 -91.0436 98° East 428 493 39,000  Level Kansas City Center
Sun 03:49:56 PM 39.9700 -90.8839 98° East 423 487 39,000  Level Kansas City Center
Sun 03:50:58 PM 39.9558 -90.7394 97° East 411 473 39,000  Level Kansas City Center
Sun 03:52:00 PM 39.9406 -90.5958 98° East 404 465 39,000  Level Kansas City Center
Sun 03:53:02 PM 39.9247 -90.4511 98° East 405 466 39,000  Level Kansas City Center
Sun 03:54:03 PM 39.9064 -90.2758 98° East 407 468 39,000  Level Kansas City Center
Sun 03:55:05 PM 39.8900 -90.1314 98° East 407 468 39,000  Level Kansas City Center
Sun 03:56:07 PM 39.8742 -89.9842 98° East 410 472 39,000  Level Kansas City Center
Sun 03:57:09 PM 39.8572 -89.8364 98° East 413 475 39,000  Level Kansas City Center
Sun 03:58:11 PM 39.8406 -89.6900 98° East 413 475 39,000  Level Kansas City Center
Sun 03:59:13 PM 39.8406 -89.5372 90° East 417 480 39,000  Level Kansas City Center
Sun 04:01:13 PM 39.8419 -89.2239 90° East 420 483 39,000  Level Indianapolis Center
Sun 04:02:15 PM 39.8411 -89.0753 90° East 416 479 39,000  Level Indianapolis Center
Sun 04:03:21 PM 39.8419 -88.9058 90° East 419 482 39,000  Level Kansas City Center
Sun 04:04:23 PM 39.8425 -88.7522 90° East 423 487 39,000  Level Kansas City Center
Sun 04:05:25 PM 39.8419 -88.5992 90° East 424 488 39,000  Level Kansas City Center
Sun 04:06:27 PM 39.8419 -88.4125 90° East 429 494 39,000  Level Kansas City Center
Sun 04:07:29 PM 39.8422 -88.2558 90° East 432 497 39,000  Level Kansas City Center
Sun 04:08:27 PM 39.8403 -88.1192 91° East 435 501 39,000  Level Indianapolis Center
Sun 04:09:29 PM 39.8383 -87.9608 91° East 439 505 39,000  Level Indianapolis Center
Sun 04:10:30 PM 39.8364 -87.7694 91° East 441 507 39,000  Level Indianapolis Center
Sun 04:11:32 PM 39.8350 -87.6106 91° East 441 507 39,000  Level Indianapolis Center
Sun 04:12:34 PM 39.8325 -87.4572 91° East 430 495 39,000  Level Indianapolis Center
Sun 04:13:36 PM 39.8322 -87.3028 90° East 428 493 39,000  Level Indianapolis Center
Sun 04:14:38 PM 39.8283 -87.1478 92° East 431 496 39,000  Level Indianapolis Center
Sun 04:15:40 PM 39.8264 -86.9922 91° East 431 496 39,000  Level Indianapolis Center
Sun 04:16:42 PM 39.8233 -86.8078 91° East 426 490 39,000  Level Indianapolis Center
Sun 04:17:44 PM 39.8203 -86.6550 91° East 425 489 39,000  Level Indianapolis Center
Sun 04:18:46 PM 39.8178 -86.5031 91° East 421 484 39,000  Level Indianapolis Center
Sun 04:19:48 PM 39.8158 -86.3389 91° East 421 484 39,000  Level Indianapolis Center
Sun 04:21:00 PM 39.8254 -86.1572 86° East  Level FlightAware Approximate
Sun 04:21:52 PM 39.8350 -86.0339 86° East 427 491 39,000  Level Indianapolis Center
Sun 04:22:54 PM 39.8433 -85.8803 86° East 426 490 39,000  Level Indianapolis Center
Sun 04:23:56 PM 39.8519 -85.7264 86° East 428 493 39,000  Level Indianapolis Center
Sun 04:24:58 PM 39.8603 -85.5703 86° East 433 498 39,000  Level Indianapolis Center
Sun 04:26:00 PM 39.8706 -85.3825 86° East 437 503 39,000  Level Indianapolis Center
Sun 04:27:02 PM 39.8778 -85.2250 87° East 438 504 39,000  Level Indianapolis Center
Sun 04:28:04 PM 39.8869 -85.0689 86° East 436 502 39,000  Level Indianapolis Center
Sun 04:29:06 PM 39.8939 -84.9139 87° East 433 498 39,000  Level Indianapolis Center
Sun 04:30:08 PM 39.9006 -84.7467 87° East 431 496 39,000  Level Indianapolis Center
Sun 04:31:09 PM 39.9089 -84.5889 86° East 433 498 39,000  Level Indianapolis Center
Sun 04:32:11 PM 39.9156 -84.4317 87° East 432 497 39,000  Level Indianapolis Center
Sun 04:33:13 PM 39.9217 -84.2747 87° East 431 496 39,000  Level Indianapolis Center
Sun 04:34:15 PM 39.9292 -84.0928 87° East 429 494 39,000  Level Indianapolis Center
Sun 04:35:17 PM 39.9358 -83.9372 87° East 427 491 39,000  Level Indianapolis Center
Sun 04:36:19 PM 39.9417 -83.7806 87° East 427 491 39,000  Level Indianapolis Center
Sun 04:37:21 PM 39.9472 -83.6228 87° East 428 493 39,000  Level Indianapolis Center
Sun 04:38:23 PM 39.9542 -83.4611 87° East 431 496 39,000  Level Indianapolis Center
Sun 04:39:25 PM 39.9597 -83.3000 87° East 434 499 39,000  Level Indianapolis Center
Sun 04:40:28 PM 39.9647 -83.1378 88° East 440 506 39,000  Level Indianapolis Center
Sun 04:41:30 PM 39.9669 -82.9786 89° East 436 502 39,000  Level Indianapolis Center
Sun 04:42:32 PM 39.9725 -82.8183 87° East 437 503 39,000  Level Indianapolis Center
Sun 04:43:34 PM 39.9781 -82.6589 87° East 437 503 39,000  Level Indianapolis Center
Sun 04:44:36 PM 39.9828 -82.5003 88° East 436 502 39,000  Level Indianapolis Center
Sun 04:45:38 PM 39.9872 -82.3142 88° East 435 501 39,000  Level Indianapolis Center
Sun 04:46:40 PM 39.9914 -82.1553 88° East 435 501 39,000  Level Indianapolis Center
Sun 04:47:42 PM 39.9947 -81.9961 88° East 435 501 39,000  Level Indianapolis Center
Sun 04:48:44 PM 39.9992 -81.8383 88° East 433 498 39,000  Level Indianapolis Center
Sun 04:49:46 PM 40.0017 -81.6794 89° East 432 497 39,000  Level Indianapolis Center
Sun 04:50:47 PM 40.0036 -81.5225 89° East 431 496 39,000  Level Indianapolis Center
Sun 04:51:49 PM 39.9700 -81.3722 106° East 429 494 39,000  Level Indianapolis Center
Sun 04:52:51 PM 39.9258 -81.2086 109° East 421 484 39,000 -97 Level Indianapolis Center
Sun 04:53:53 PM 39.8867 -81.0611 109° East 426 490 38,800 -387 Descending Indianapolis Center
Sun 04:54:24 PM 39.8706 -80.9997 109° East 424 488 38,400 -823 Descending Cleveland Center
Sun 04:55:57 PM 39.8069 -80.7661 109° East 432 497 37,100 -800 Descending Indianapolis Center
Sun 04:56:24 PM 39.7919 -80.7047 108° East 429 494 36,800 -759 Descending Cleveland Center
Sun 04:57:24 PM 39.7503 -80.5506 109° East 435 501 36,000 -950 Descending Cleveland Center
Sun 04:58:24 PM 39.7106 -80.4022 109° East 435 501 34,900 -1,050 Descending Cleveland Center
Sun 04:59:24 PM 39.6686 -80.2542 110° East 435 501 33,900 -1,598 Descending Cleveland Center
Sun 05:01:13 PM 39.5922 -79.9786 110° East 440 506 30,400 -1,694 Descending Washington Center
Sun 05:02:14 PM 39.5519 -79.8225 108° East 446 513 29,100 -1,121 Descending Washington Center
Sun 05:04:15 PM 39.4978 -79.5156 103° East 440 506 27,000 -692 Descending Washington Center
Sun 05:05:16 PM 39.4711 -79.3717 103° East 423 487 27,000 -559 Level Washington Center
Sun 05:06:13 PM 39.4442 -79.2250 103° East 416 479 25,900 -1,678 Descending Washington Center
Sun 05:07:14 PM 39.4192 -79.0867 103° East 416 479 23,700 -2,115 Descending Washington Center
Sun 05:08:15 PM 39.3958 -78.9539 103° East 397 457 21,600 -1,820 Descending Washington Center
Sun 05:09:16 PM 39.3667 -78.8050 104° East 383 441 20,000 -1,983 Descending Washington Center
Sun 05:10:13 PM 39.3486 -78.6994 102° East 362 417 17,700 -2,237 Descending Washington Center
Sun 05:11:14 PM 39.3267 -78.5753 103° East 357 411 15,600 -1,983 Descending Washington Center
Sun 05:12:14 PM 39.3044 -78.4589 104° East 345 397 13,700 -1,686 Descending Washington Center
Sun 05:13:15 PM 39.2883 -78.3431 100° East 334 384 12,200 -1,193 Descending Washington Center
Sun 05:14:55 PM 39.2667 -78.1500 98° East 283 326 10,500 -1,000 Descending Potomac TRACON
Sun 05:15:15 PM 39.2658 -78.1331 94° East 301 346 10,200 -1,308 Descending Washington Center
Sun 05:16:13 PM 39.2536 -78.0281 99° East 284 327 8,800 -1,160 Descending Washington Center
Sun 05:17:14 PM 39.2533 -77.9394 90° East 263 303 7,900 -885 Descending Washington Center
Sun 05:18:15 PM 39.2694 -77.8542 76° East 246 283 7,000 -1,033 Descending Washington Center
Sun 05:19:16 PM 39.2833 -77.7717 78° East 235 270 5,800 -1,017 Descending Washington Center
Sun 05:20:13 PM 39.2994 -77.6942 75° East 230 265 5,000 -298 Descending Washington Center
Sun 05:21:57 PM 39.3167 -77.5500 81° East 226 260 5,000  Level Potomac TRACON
Sun 05:23:03 PM 39.3000 -77.4833 108° East 224 258 5,000  Level Potomac TRACON
Sun 05:24:03 PM 39.2333 -77.4667 169° South 223 257 5,000 -298 Level Potomac TRACON
Sun 05:25:04 PM 39.1833 -77.4667 180° South 191 220 4,400 -793 Descending Potomac TRACON
Sun 05:26:04 PM 39.1333 -77.4667 180° South 195 224 3,400 -1,000 Descending Potomac TRACON
Sun 05:26:58 PM 39.0833 -77.4667 180° South 193 222 2,500 -1,000 Descending Potomac TRACON
Sun 05:27:58 PM 39.0333 -77.4667 180° South 172 198 1,500 -857 Descending Potomac TRACON
Sun 05:29:04 PM 38.9833 -77.4667 180° South 135 155 700 -727 Descending Potomac TRACON

Login

Don't have an account? Register now (free) for customized features, flight alerts, and more!